Time;durP1;ratioP1;P1;durP2;ratioP2;P2;SDS_P1;SDS_P2;PMS_P1;PMS_P2;Temp;Humidity;BMP_temperature;BMP_pressure;BME280_temperature;BME280_humidity;BME280_pressure;Samples;Min_cycle;Max_cycle;Signal;HPM_P1;HPM_P2
2022/07/04 00:00:03;;;;;;;0.00;0.00;;;;;;;15.55;59.63;101485.97;7365567;19;20021;-65
2022/07/04 00:02:28;;;;;;;0.10;0.10;;;;;;;15.49;60.10;101488.81;7364742;19;20010;-64
2022/07/04 00:04:54;;;;;;;0.00;0.00;;;;;;;15.44;59.89;101488.94;7366469;19;20038;-64
2022/07/04 00:07:19;;;;;;;0.00;0.00;;;;;;;15.36;59.79;101479.56;7364394;19;20694;-65
2022/07/04 00:09:45;;;;;;;0.08;0.08;;;;;;;15.33;59.30;101483.16;7366001;19;20014;-64
2022/07/04 00:12:10;;;;;;;0.05;0.05;;;;;;;15.28;59.93;101491.19;7366170;19;20064;-65
2022/07/04 00:14:35;;;;;;;0.00;0.00;;;;;;;15.23;60.75;101485.19;7366809;19;20018;-65
2022/07/04 00:17:01;;;;;;;0.00;0.00;;;;;;;15.17;61.32;101477.50;7365688;19;20046;-65
2022/07/04 00:19:26;;;;;;;0.05;0.05;;;;;;;15.14;61.24;101477.56;7364039;19;20474;-65
2022/07/04 00:21:52;;;;;;;0.00;0.00;;;;;;;15.12;61.16;101476.75;7365987;19;20018;-64
2022/07/04 00:24:17;;;;;;;0.00;0.00;;;;;;;15.10;61.02;101481.19;7364800;19;20077;-65
2022/07/04 00:26:43;;;;;;;0.00;0.00;;;;;;;15.09;61.51;101487.34;7366113;19;20074;-65
2022/07/04 00:29:08;;;;;;;0.00;0.00;;;;;;;15.09;61.19;101497.03;7364684;19;20723;-65
2022/07/04 00:31:34;;;;;;;0.00;0.00;;;;;;;15.09;61.83;101494.38;7366402;19;20014;-64
2022/07/04 00:33:59;;;;;;;0.00;0.00;;;;;;;15.08;61.73;101496.16;7365015;19;20430;-65
2022/07/04 00:36:25;;;;;;;0.10;0.10;;;;;;;15.08;61.79;101496.16;7363804;19;20085;-64
2022/07/04 00:38:50;;;;;;;0.00;0.00;;;;;;;15.05;61.47;101485.72;7366094;19;20007;-64
2022/07/04 00:41:15;;;;;;;0.00;0.00;;;;;;;15.10;61.13;101502.22;7364521;19;20026;-65
2022/07/04 00:43:41;;;;;;;0.00;0.00;;;;;;;15.07;61.67;101483.91;7365727;19;20021;-65
2022/07/04 00:46:06;;;;;;;0.10;0.10;;;;;;;15.01;61.32;101481.47;7362689;19;20011;-65
2022/07/04 00:48:32;;;;;;;0.08;0.08;;;;;;;15.07;61.89;101489.19;7365942;19;20024;-65
2022/07/04 00:50:58;;;;;;;0.00;0.00;;;;;;;15.05;62.24;101481.34;7363090;19;20373;-64
2022/07/04 00:53:24;;;;;;;0.00;0.00;;;;;;;15.09;61.55;101492.63;7365035;19;20010;-65
2022/07/04 00:55:50;;;;;;;0.00;0.00;;;;;;;15.10;62.22;101490.84;7363345;19;20010;-64
2022/07/04 00:58:19;;;;;;;0.00;0.00;;;;;;;15.11;61.03;101479.44;7366676;19;20010;-64
2022/07/04 01:00:44;;;;;;;0.00;0.00;;;;;;;15.13;62.05;101483.75;7362930;19;20323;-64
2022/07/04 01:03:10;;;;;;;0.00;0.00;;;;;;;15.13;61.92;101483.75;7365236;19;20013;-65
2022/07/04 01:05:36;;;;;;;0.08;0.08;;;;;;;15.05;62.33;101469.94;7362512;19;20113;-64
2022/07/04 01:08:02;;;;;;;0.00;0.00;;;;;;;15.05;61.67;101462.03;7365829;19;20057;-65
2022/07/04 01:10:27;;;;;;;0.03;0.03;;;;;;;15.14;61.83;101479.34;7357814;19;20077;-64
2022/07/04 01:12:54;;;;;;;0.00;0.00;;;;;;;15.15;61.92;101486.31;7360873;19;20014;-64
2022/07/04 01:15:19;;;;;;;0.00;0.00;;;;;;;15.14;62.41;101485.44;7364311;19;20042;-64
2022/07/04 01:17:44;;;;;;;0.08;0.08;;;;;;;15.14;62.56;101482.81;7364968;19;20011;-65
2022/07/04 01:20:14;;;;;;;0.00;0.00;;;;;;;15.15;62.42;101481.91;7365450;19;20048;-64
2022/07/04 01:22:41;;;;;;;0.10;0.10;;;;;;;15.17;61.90;101481.88;7366702;19;20040;-64
2022/07/04 01:25:09;;;;;;;0.08;0.08;;;;;;;15.16;62.41;101473.13;7365301;19;20094;-65
2022/07/04 01:27:35;;;;;;;0.00;0.00;;;;;;;15.05;62.65;101454.16;7365631;19;20003;-65
2022/07/04 01:30:01;;;;;;;0.00;0.00;;;;;;;15.16;62.25;101467.88;7365673;19;20003;-64
2022/07/04 01:32:26;;;;;;;0.00;0.00;;;;;;;15.17;62.36;101477.50;7365637;19;20343;-64
2022/07/04 01:34:52;;;;;;;0.00;0.00;;;;;;;15.16;62.52;101473.13;7368041;19;20655;-64
2022/07/04 01:37:17;;;;;;;0.00;0.00;;;;;;;15.16;61.69;101470.50;7361879;19;20020;-65
2022/07/04 01:39:43;;;;;;;0.00;0.00;;;;;;;15.17;61.67;101481.88;7367152;19;20010;-65
2022/07/04 01:42:08;;;;;;;0.10;0.10;;;;;;;15.15;62.37;101475.78;7365414;19;20010;-65
2022/07/04 01:44:34;;;;;;;0.00;0.00;;;;;;;15.10;61.57;101473.28;7366541;19;20820;-65
2022/07/04 01:47:00;;;;;;;0.03;0.03;;;;;;;15.08;62.90;101464.59;7367271;19;20702;-65
2022/07/04 01:49:26;;;;;;;0.05;0.05;;;;;;;15.11;62.44;101464.50;7366082;19;20026;-66
2022/07/04 01:51:52;;;;;;;0.10;0.10;;;;;;;15.13;62.83;101462.69;7363405;19;20019;-65
2022/07/04 01:54:19;;;;;;;0.10;0.10;;;;;;;15.13;62.96;101465.31;7367440;19;20094;-64
2022/07/04 01:56:45;;;;;;;0.08;0.08;;;;;;;15.14;61.73;101463.56;7364392;19;20087;-65
2022/07/04 01:59:10;;;;;;;0.00;0.00;;;;;;;15.14;62.98;101464.41;7357047;19;20073;-65
2022/07/04 02:01:37;;;;;;;0.00;0.00;;;;;;;15.06;61.86;101445.38;7364384;19;20023;-65
2022/07/04 02:04:03;;;;;;;0.00;0.00;;;;;;;15.13;62.15;101452.16;7365782;19;20006;-64
2022/07/04 02:06:29;;;;;;;0.00;0.00;;;;;;;15.11;62.88;101448.72;7363040;19;20011;-65
2022/07/04 02:14:23;;;;;;;0.00;0.00;;;;;;;15.08;63.23;101448.81;7364618;19;20488;-64
2022/07/04 02:16:49;;;;;;;0.03;0.03;;;;;;;15.07;64.43;101447.09;7364183;19;20014;-64
2022/07/04 02:19:14;;;;;;;0.00;0.00;;;;;;;15.05;64.65;101441.00;7363870;19;20010;-65
2022/07/04 02:21:40;;;;;;;0.00;0.00;;;;;;;15.01;65.13;101439.38;7361410;19;20018;-65
2022/07/04 02:24:06;;;;;;;0.00;0.00;;;;;;;14.95;65.77;101439.53;7364028;19;20632;-65
2022/07/04 02:26:31;;;;;;;0.00;0.00;;;;;;;14.90;65.37;101430.91;7365444;19;20494;-64
2022/07/04 02:28:57;;;;;;;0.00;0.00;;;;;;;14.84;65.04;101428.47;7364408;19;20018;-65
2022/07/04 02:31:22;;;;;;;0.00;0.00;;;;;;;14.76;65.44;101428.72;7363539;19;20011;-65
2022/07/04 02:33:48;;;;;;;0.00;0.00;;;;;;;14.57;66.52;101409.97;7362742;19;20359;-65
2022/07/04 02:36:13;;;;;;;0.00;0.00;;;;;;;14.63;66.46;101424.69;7359161;19;20006;-65
2022/07/04 02:38:39;;;;;;;0.03;0.03;;;;;;;14.57;66.97;101422.25;7364024;19;20418;-65
2022/07/04 02:41:04;;;;;;;0.00;0.00;;;;;;;14.50;65.88;101419.78;7365185;19;20022;-64
2022/07/04 02:43:30;;;;;;;0.10;0.10;;;;;;;14.49;64.83;101417.19;7361333;19;20025;-65
2022/07/04 02:45:55;;;;;;;0.00;0.00;;;;;;;14.27;66.60;101380.94;7363316;19;20014;-64
2022/07/04 02:48:20;;;;;;;0.00;0.00;;;;;;;14.41;66.62;101417.38;7363560;19;20010;-64
2022/07/04 02:50:46;;;;;;;0.00;0.00;;;;;;;14.37;65.89;101407.84;7360796;19;20379;-64
2022/07/04 02:53:11;;;;;;;0.00;0.00;;;;;;;14.20;65.46;101384.66;7364249;19;20023;-65
2022/07/04 02:55:37;;;;;;;0.00;0.00;;;;;;;14.24;66.53;101402.06;7360046;19;20014;-65
2022/07/04 02:58:02;;;;;;;0.00;0.00;;;;;;;14.25;67.36;101413.44;7362987;19;20006;-64
2022/07/04 03:00:28;;;;;;;0.00;0.00;;;;;;;14.20;66.66;101410.94;7360926;19;20018;-64
2022/07/04 03:02:54;;;;;;;0.00;0.00;;;;;;;14.17;66.58;101421.50;7361396;19;20037;-64
2022/07/04 03:05:19;;;;;;;0.10;0.10;;;;;;;14.12;67.87;101418.13;7357496;19;20083;-65
2022/07/04 03:07:45;;;;;;;0.00;0.00;;;;;;;14.11;67.83;101395.41;7361587;19;20647;-64
2022/07/04 03:10:10;;;;;;;0.00;0.00;;;;;;;14.06;67.05;101399.91;7364466;19;20002;-65
2022/07/04 03:12:36;;;;;;;0.00;0.00;;;;;;;14.00;68.05;101397.47;7362589;19;20030;-65
2022/07/04 03:15:02;;;;;;;0.00;0.00;;;;;;;13.96;67.38;101390.56;7364259;19;20010;-65
2022/07/04 03:17:31;;;;;;;0.00;0.00;;;;;;;14.00;68.41;101403.56;7363438;19;20037;-65
2022/07/04 03:19:57;;;;;;;0.00;0.00;;;;;;;13.99;67.81;101398.38;7346441;19;20013;-65
2022/07/04 03:22:22;;;;;;;0.00;0.00;;;;;;;13.97;67.85;101408.03;7352618;19;20461;-65
2022/07/04 03:24:48;;;;;;;0.00;0.00;;;;;;;13.95;68.59;101415.09;7354430;19;20083;-65
2022/07/04 03:27:13;;;;;;;0.00;0.00;;;;;;;13.95;66.68;101415.09;7357762;19;20018;-65
2022/07/04 03:29:39;;;;;;;0.00;0.00;;;;;;;13.89;68.49;101416.09;7354857;19;20730;-64
2022/07/04 03:32:05;;;;;;;0.00;0.00;;;;;;;13.95;67.70;101433.47;7357911;19;20006;-65
2022/07/04 03:34:31;;;;;;;0.00;0.00;;;;;;;13.94;68.77;101422.09;7362517;19;20006;-64
2022/07/04 03:36:56;;;;;;;0.00;0.00;;;;;;;13.96;68.02;101414.19;7363878;19;20026;-65
2022/07/04 03:39:21;;;;;;;0.00;0.00;;;;;;;13.95;68.03;101420.34;7362499;19;20017;-65
2022/07/04 03:41:47;;;;;;;0.00;0.00;;;;;;;13.92;68.79;101408.13;7361605;19;20915;-64
2022/07/04 03:44:13;;;;;;;0.00;0.00;;;;;;;13.98;68.50;101420.25;7363086;19;21165;-65
2022/07/04 03:46:38;;;;;;;0.00;0.00;;;;;;;13.98;68.60;101409.75;7364967;19;20018;-65
2022/07/04 03:49:03;;;;;;;0.00;0.00;;;;;;;13.97;68.02;101415.91;7359790;19;20828;-64
2022/07/04 03:51:29;;;;;;;0.00;0.00;;;;;;;13.99;68.30;101411.50;7360398;19;20667;-64
2022/07/04 03:53:54;;;;;;;0.00;0.00;;;;;;;14.02;68.33;101411.41;7362092;19;21356;-64
2022/07/04 03:56:20;;;;;;;0.00;0.00;;;;;;;13.95;67.57;101396.72;7363229;19;20020;-65
2022/07/04 03:58:48;;;;;;;0.03;0.03;;;;;;;14.05;67.23;101415.72;7362168;19;20097;-64
2022/07/04 04:01:16;;;;;;;0.00;0.00;;;;;;;14.05;67.98;101411.31;7361657;19;20537;-65
2022/07/04 04:06:25;;;;;;;0.00;0.00;;;;;;;13.99;68.33;101395.75;7360422;19;20023;-65
2022/07/04 04:08:51;;;;;;;0.00;0.00;;;;;;;14.03;68.04;101407.88;7363241;19;20117;-64
2022/07/04 04:11:16;;;;;;;0.00;0.00;;;;;;;14.03;67.55;101406.09;7359336;19;20529;-65
2022/07/04 04:13:41;;;;;;;0.00;0.00;;;;;;;14.02;68.83;101406.16;7362088;19;20014;-65
2022/07/04 04:16:07;;;;;;;0.00;0.00;;;;;;;14.01;68.49;101409.69;7358659;19;20010;-64
2022/07/04 04:18:32;;;;;;;0.00;0.00;;;;;;;14.00;67.72;101407.97;7362919;19;20014;-64
2022/07/04 04:20:58;;;;;;;0.00;0.00;;;;;;;13.97;67.77;101416.75;7360123;19;20029;-64
2022/07/04 04:23:23;;;;;;;0.00;0.00;;;;;;;13.98;68.24;101425.50;7361507;19;20011;-64
2022/07/04 04:25:48;;;;;;;0.10;0.10;;;;;;;13.98;68.39;101436.00;7360266;19;20973;-65
2022/07/04 04:28:14;;;;;;;0.00;0.00;;;;;;;13.95;68.44;101425.59;7362781;19;20009;-65
2022/07/04 04:30:39;;;;;;;0.00;0.00;;;;;;;13.95;68.37;101422.97;7360489;19;20017;-64
2022/07/04 04:33:05;;;;;;;0.00;0.00;;;;;;;13.97;67.48;101443.03;7362118;19;20010;-65
2022/07/04 04:35:30;;;;;;;0.10;0.10;;;;;;;13.97;67.99;101440.41;7360821;19;20051;-64
2022/07/04 04:37:56;;;;;;;0.00;0.00;;;;;;;13.97;68.40;101443.03;7360016;19;20011;-65
2022/07/04 04:40:21;;;;;;;0.00;0.00;;;;;;;13.90;68.38;101433.59;7359875;19;20411;-65
2022/07/04 04:42:47;;;;;;;0.00;0.00;;;;;;;13.96;68.68;101432.56;7359750;19;20944;-65
2022/07/04 04:45:12;;;;;;;0.00;0.00;;;;;;;14.02;68.45;101440.28;7357942;19;20038;-65
2022/07/04 04:47:37;;;;;;;0.00;0.00;;;;;;;14.04;68.79;101443.75;7360144;19;20639;-64
2022/07/04 04:50:03;;;;;;;0.00;0.00;;;;;;;14.06;68.20;101441.94;7361793;19;20012;-65
2022/07/04 04:52:29;;;;;;;0.10;0.10;;;;;;;14.09;68.33;101447.13;7359947;19;20059;-64
2022/07/04 04:54:54;;;;;;;0.10;0.10;;;;;;;14.10;68.02;101446.22;7361253;19;20029;-64
2022/07/04 04:57:19;;;;;;;0.00;0.00;;;;;;;14.07;67.57;101451.53;7360288;19;20045;-64
2022/07/04 04:59:45;;;;;;;0.00;0.00;;;;;;;14.15;68.31;101452.22;7359870;19;20037;-65
2022/07/04 05:02:10;;;;;;;0.00;0.00;;;;;;;14.18;68.19;101459.13;7360598;19;20006;-65
2022/07/04 05:04:36;;;;;;;0.00;0.00;;;;;;;14.18;67.87;101460.00;7360557;19;20017;-65
2022/07/04 05:07:01;;;;;;;0.00;0.00;;;;;;;14.22;68.03;101461.66;7360647;19;20045;-64
2022/07/04 05:09:26;;;;;;;0.05;0.05;;;;;;;14.26;68.12;101465.94;7361016;19;20015;-64
2022/07/04 05:11:52;;;;;;;0.00;0.00;;;;;;;14.28;68.14;101450.97;7359199;19;20435;-64
2022/07/04 05:14:17;;;;;;;0.10;0.10;;;;;;;14.32;67.90;101446.50;7361083;19;20374;-65
2022/07/04 05:16:43;;;;;;;0.10;0.10;;;;;;;14.35;68.17;101450.84;7359935;19;20870;-65
2022/07/04 05:19:09;;;;;;;0.05;0.05;;;;;;;14.37;66.68;101449.03;7360160;19;20015;-65
2022/07/04 05:21:34;;;;;;;0.00;0.00;;;;;;;14.38;67.26;101456.00;7360177;19;20711;-64
2022/07/04 05:23:59;;;;;;;0.10;0.10;;;;;;;14.41;66.63;101461.19;7358318;19;20592;-65
2022/07/04 05:26:25;;;;;;;0.00;0.00;;;;;;;14.37;67.67;101449.88;7359659;19;20010;-64
2022/07/04 05:28:51;;;;;;;0.00;0.00;;;;;;;14.40;67.01;101462.09;7361048;19;20015;-65
2022/07/04 05:31:16;;;;;;;0.00;0.00;;;;;;;14.43;66.70;101454.13;7359458;19;20016;-64
2022/07/04 05:33:42;;;;;;;0.10;0.10;;;;;;;14.31;67.49;101431.66;7360182;19;20077;-64
2022/07/04 05:36:08;;;;;;;0.00;0.00;;;;;;;14.47;67.75;101450.50;7356336;19;20023;-64
2022/07/04 05:38:33;;;;;;;0.10;0.10;;;;;;;14.41;67.53;101432.28;7359870;19;20081;-64
2022/07/04 05:40:59;;;;;;;0.00;0.00;;;;;;;14.51;67.62;101441.69;7358504;19;20136;-65
2022/07/04 05:43:27;;;;;;;0.00;0.00;;;;;;;14.53;67.58;101442.47;7358369;19;20014;-64
2022/07/04 05:45:53;;;;;;;0.00;0.00;;;;;;;14.51;67.21;101436.41;7358085;19;20025;-64
2022/07/04 05:48:19;;;;;;;0.00;0.00;;;;;;;14.59;66.64;101450.19;7361517;19;20350;-64
2022/07/04 05:50:44;;;;;;;0.00;0.00;;;;;;;14.48;67.17;101436.47;7355890;19;20018;-64
2022/07/04 05:53:10;;;;;;;0.00;0.00;;;;;;;14.62;67.35;101450.13;7359653;19;20002;-65
2022/07/04 05:55:35;;;;;;;0.00;0.00;;;;;;;14.63;67.39;101457.09;7355460;19;20003;-65
2022/07/04 05:58:01;;;;;;;0.10;0.10;;;;;;;14.68;66.96;101446.47;7356457;19;20010;-64
2022/07/04 06:00:26;;;;;;;0.00;0.00;;;;;;;14.73;67.06;101452.44;7363993;19;20010;-64
2022/07/04 06:02:52;;;;;;;0.00;0.00;;;;;;;14.76;67.20;101457.63;7367148;19;20021;-65
2022/07/04 06:05:17;;;;;;;0.00;0.00;;;;;;;14.67;67.08;101440.34;7366696;19;20011;-65
2022/07/04 06:07:43;;;;;;;0.00;0.00;;;;;;;14.84;67.40;101460.03;7365629;19;20097;-64
2022/07/04 06:10:09;;;;;;;0.00;0.00;;;;;;;14.90;67.04;101459.84;7363230;19;20019;-65
2022/07/04 06:12:35;;;;;;;0.10;0.10;;;;;;;14.94;66.61;101472.00;7364643;19;20027;-64
2022/07/04 06:15:00;;;;;;;0.00;0.00;;;;;;;14.99;66.46;101475.38;7362840;19;20014;-64
2022/07/04 06:17:26;;;;;;;0.05;0.05;;;;;;;15.02;66.99;101462.16;7361330;19;20025;-64
2022/07/04 06:19:51;;;;;;;0.05;0.05;;;;;;;15.10;66.39;101456.66;7359248;19;20021;-64
2022/07/04 06:22:17;;;;;;;0.10;0.10;;;;;;;15.10;66.60;101462.75;7355941;19;20016;-64
2022/07/04 06:24:42;;;;;;;0.08;0.08;;;;;;;15.18;66.06;101468.69;7359184;19;20021;-64
2022/07/04 06:27:08;;;;;;;0.05;0.05;;;;;;;15.21;65.54;101467.75;7364359;19;20469;-65
2022/07/04 06:29:33;;;;;;;0.00;0.00;;;;;;;15.22;65.26;101466.81;7363517;19;20632;-64
2022/07/04 06:31:59;;;;;;;0.00;0.00;;;;;;;15.23;65.57;101472.03;7363530;19;20014;-64
2022/07/04 06:37:08;;;;;;;0.00;0.00;;;;;;;15.28;64.64;101467.50;7360542;19;20905;-64
2022/07/04 06:39:33;;;;;;;0.00;0.00;;;;;;;15.30;64.88;101476.19;7362930;19;20006;-65
2022/07/04 06:41:59;;;;;;;0.00;0.00;;;;;;;15.36;65.10;101480.44;7361690;19;20010;-64
2022/07/04 06:44:24;;;;;;;0.00;0.00;;;;;;;15.43;64.97;101483.75;7360111;19;20010;-64
2022/07/04 06:46:50;;;;;;;0.00;0.00;;;;;;;15.45;64.84;101481.91;7361948;19;20014;-64
2022/07/04 06:49:16;;;;;;;0.00;0.00;;;;;;;15.54;64.60;101481.63;7358741;19;20077;-65
2022/07/04 06:51:42;;;;;;;0.00;0.00;;;;;;;15.59;64.35;101490.25;7359134;19;20103;-64
2022/07/04 06:54:07;;;;;;;0.00;0.00;;;;;;;15.64;64.34;101491.00;7362630;19;20019;-64
2022/07/04 06:56:33;;;;;;;0.00;0.00;;;;;;;15.68;64.19;101497.91;7360676;19;20974;-64
2022/07/04 06:58:58;;;;;;;0.00;0.00;;;;;;;15.71;64.27;101505.72;7359046;19;20054;-64
2022/07/04 07:01:23;;;;;;;0.10;0.10;;;;;;;15.77;64.04;101504.66;7361144;19;20027;-64
2022/07/04 07:03:49;;;;;;;0.00;0.00;;;;;;;15.79;63.48;101495.78;7358969;19;20036;-64
2022/07/04 07:06:15;;;;;;;0.00;0.00;;;;;;;15.72;63.85;101482.88;7357179;19;20006;-64
2022/07/04 07:08:40;;;;;;;0.00;0.00;;;;;;;15.82;63.05;101494.84;7359794;19;20010;-64
2022/07/04 07:11:16;;;;;;;0.00;0.00;;;;;;;15.86;62.60;101501.72;7359493;19;20021;-63
2022/07/04 07:13:44;;;;;;;0.00;0.00;;;;;;;15.88;62.14;101504.31;7362096;19;20006;-65
2022/07/04 07:16:10;;;;;;;0.00;0.00;;;;;;;15.94;62.18;101512.03;7358385;19;20069;-64
2022/07/04 07:18:35;;;;;;;0.00;0.00;;;;;;;15.97;61.98;101509.31;7364208;19;20023;-64
2022/07/04 07:21:01;;;;;;;0.00;0.00;;;;;;;16.01;62.33;101517.03;7364045;19;20014;-65
2022/07/04 07:23:26;;;;;;;0.00;0.00;;;;;;;16.09;61.78;101514.16;7363791;19;20068;-65
2022/07/04 07:25:51;;;;;;;0.00;0.00;;;;;;;16.12;61.75;101508.81;7351783;19;20743;-64
2022/07/04 07:28:18;;;;;;;0.00;0.00;;;;;;;16.18;61.64;101511.22;7364942;19;20014;-63
2022/07/04 07:30:44;;;;;;;0.10;0.10;;;;;;;16.24;62.10;101513.66;7358532;19;20082;-64
2022/07/04 07:33:10;;;;;;;0.00;0.00;;;;;;;16.31;62.06;101514.31;7358499;19;20092;-64
2022/07/04 07:35:36;;;;;;;0.00;0.00;;;;;;;16.37;61.82;101514.09;7358458;19;20374;-64
2022/07/04 07:38:01;;;;;;;0.00;0.00;;;;;;;16.45;61.54;101516.47;7355068;19;20015;-64
2022/07/04 07:40:26;;;;;;;0.00;0.00;;;;;;;16.53;61.19;101517.09;7357258;19;20010;-63
2022/07/04 07:42:54;;;;;;;0.03;0.03;;;;;;;16.61;61.92;101528.22;7355137;19;20010;-64
2022/07/04 07:45:20;;;;;;;0.00;0.00;;;;;;;16.70;60.94;101533.19;7362883;19;20022;-64
2022/07/04 07:47:45;;;;;;;0.00;0.00;;;;;;;16.79;61.02;101527.63;7358557;19;20046;-64
2022/07/04 07:50:12;;;;;;;0.00;0.00;;;;;;;16.86;60.76;101528.25;7355790;19;20015;-64
2022/07/04 07:52:37;;;;;;;0.00;0.00;;;;;;;16.95;60.60;101540.25;7361620;19;20006;-64
2022/07/04 07:55:03;;;;;;;0.00;0.00;;;;;;;16.92;60.07;101516.63;7357396;19;20030;-64
2022/07/04 07:57:29;;;;;;;0.00;0.00;;;;;;;17.05;60.04;101531.09;7347361;19;20078;-64
2022/07/04 07:59:54;;;;;;;0.10;0.10;;;;;;;17.15;59.29;101532.50;7358278;19;20014;-64
2022/07/04 08:04:33;;;;;;;0.10;0.10;;;;;;;17.20;59.53;101527.91;7356498;19;20007;-64
2022/07/04 08:05:06;;;;;;;0.05;0.05;;;;;;;17.32;58.89;101532.72;7363417;19;20032;-64
2022/07/04 08:07:31;;;;;;;0.10;0.10;;;;;;;17.41;58.77;101526.22;7362178;19;20646;-64
2022/07/04 08:09:56;;;;;;;0.00;0.00;;;;;;;17.47;58.65;101525.13;7360205;19;20007;-64
2022/07/04 08:12:22;;;;;;;0.00;0.00;;;;;;;17.50;58.67;101525.03;7358624;19;20022;-64
2022/07/04 08:14:47;;;;;;;0.03;0.03;;;;;;;17.45;57.71;101505.84;7361768;19;20014;-64
2022/07/04 08:17:13;;;;;;;0.00;0.00;;;;;;;17.55;57.99;101525.72;7360559;19;20010;-64
2022/07/04 08:19:38;;;;;;;0.08;0.08;;;;;;;17.46;58.31;101524.28;7363508;19;20006;-64
2022/07/04 08:22:04;;;;;;;0.10;0.10;;;;;;;17.53;58.03;101535.47;7370030;19;20763;-64
2022/07/04 08:24:29;;;;;;;0.00;0.00;;;;;;;17.54;58.23;101542.47;7365729;19;20014;-64
2022/07/04 08:26:55;;;;;;;0.10;0.10;;;;;;;17.53;58.30;101535.47;7367950;19;20030;-63
2022/07/04 08:29:20;;;;;;;0.00;0.00;;;;;;;17.58;57.22;101544.06;7368143;19;20011;-64
2022/07/04 08:31:46;;;;;;;0.00;0.00;;;;;;;17.59;57.46;101529.97;7368829;19;20367;-64
2022/07/04 08:34:12;;;;;;;0.00;0.00;;;;;;;17.64;57.20;101535.94;7368233;19;20026;-64
2022/07/04 08:36:37;;;;;;;0.00;0.00;;;;;;;17.80;57.01;101554.72;7367386;19;20014;-64
2022/07/04 08:39:03;;;;;;;0.00;0.00;;;;;;;17.89;56.01;101559.59;7367242;19;20029;-64
2022/07/04 08:41:35;;;;;;;0.00;0.00;;;;;;;17.98;56.66;101561.03;7367092;19;20462;-64
2022/07/04 08:44:01;;;;;;;0.10;0.10;;;;;;;18.00;56.55;101556.56;7366688;19;20010;-64
2022/07/04 08:46:27;;;;;;;0.10;0.10;;;;;;;18.07;55.98;101565.97;7369511;19;20003;-64
2022/07/04 08:48:55;;;;;;;0.00;0.00;;;;;;;18.15;55.14;101571.81;7364627;19;20018;-64
2022/07/04 08:51:45;;;;;;;0.10;0.10;;;;;;;18.26;55.78;101571.38;7368919;19;20014;-64
2022/07/04 08:59:40;;;;;;;0.05;0.05;;;;;;;18.44;53.62;101565.31;7362709;19;20027;-64
2022/07/04 09:02:06;;;;;;;0.10;0.10;;;;;;;18.49;53.73;101576.56;7367711;19;20368;-64
2022/07/04 09:04:32;;;;;;;0.10;0.10;;;;;;;18.53;53.44;101566.72;7366522;19;20003;-64
2022/07/04 09:06:57;;;;;;;0.10;0.10;;;;;;;18.57;52.47;101568.31;7366394;19;20002;-64
2022/07/04 09:09:25;;;;;;;0.00;0.00;;;;;;;18.60;52.48;101570.81;7365316;19;20003;-64
2022/07/04 09:11:51;;;;;;;0.00;0.00;;;;;;;18.60;52.88;101573.47;7365694;19;20015;-64
2022/07/04 09:14:16;;;;;;;0.10;0.10;;;;;;;18.61;52.20;101573.41;7367426;19;20026;-64
2022/07/04 09:16:42;;;;;;;0.00;0.00;;;;;;;18.59;52.69;101571.75;7366880;19;20018;-64
2022/07/04 09:19:20;;;;;;;0.00;0.00;;;;;;;18.59;53.30;101579.69;7366386;19;20022;-64
2022/07/04 09:21:47;;;;;;;0.05;0.05;;;;;;;18.53;52.01;101588.72;7370147;19;20035;-64
2022/07/04 09:24:12;;;;;;;0.10;0.10;;;;;;;18.49;52.23;101581.84;7366808;19;20429;-64
2022/07/04 09:26:46;;;;;;;0.00;0.00;;;;;;;18.51;52.85;101579.16;7365611;19;20010;-64
2022/07/04 09:29:11;;;;;;;0.00;0.00;;;;;;;18.44;52.45;101582.97;7366810;19;20014;-64
2022/07/04 09:31:38;;;;;;;0.08;0.08;;;;;;;18.42;52.65;101591.81;7366334;19;20015;-64
2022/07/04 09:34:06;;;;;;;0.00;0.00;;;;;;;18.42;52.21;101583.91;7366703;19;20784;-64
2022/07/04 09:36:44;;;;;;;0.10;0.10;;;;;;;18.43;53.20;101582.09;7367500;19;20082;-64
2022/07/04 09:39:20;;;;;;;0.10;0.10;;;;;;;18.43;53.06;101587.41;7365566;19;20018;-64
2022/07/04 09:41:53;;;;;;;0.10;0.10;;;;;;;18.42;52.58;101585.69;7366274;19;20522;-64
2022/07/04 09:44:20;;;;;;;0.10;0.10;;;;;;;18.37;51.48;101592.94;7366498;19;20002;-64
2022/07/04 09:46:46;;;;;;;0.10;0.10;;;;;;;18.28;51.17;101575.66;7365335;19;20137;-64
2022/07/04 09:49:11;;;;;;;0.00;0.00;;;;;;;18.37;51.27;101588.50;7364181;19;20593;-64
2022/07/04 09:51:49;;;;;;;0.10;0.10;;;;;;;18.44;52.28;101593.53;7365469;19;20018;-64
2022/07/04 09:54:25;;;;;;;0.05;0.05;;;;;;;18.52;51.54;101591.44;7367626;19;20562;-64
2022/07/04 09:56:53;;;;;;;0.10;0.10;;;;;;;18.57;50.63;101586.81;7363854;19;20007;-64
2022/07/04 09:59:19;;;;;;;0.10;0.10;;;;;;;18.59;50.32;101587.63;7364734;19;20022;-64
2022/07/04 10:01:45;;;;;;;0.00;0.00;;;;;;;18.66;51.19;101595.25;7365536;19;21438;-64
2022/07/04 10:04:12;;;;;;;0.10;0.10;;;;;;;18.71;51.19;101592.44;7366562;19;20030;-64
2022/07/04 10:06:39;;;;;;;;;;;;;;;18.85;52.84;101590.03;7366896;19;20647;-64
2022/07/04 10:09:16;;;;;;;0.10;0.10;;;;;;;18.88;51.56;101594.34;7365585;19;19922;-64
2022/07/04 10:11:43;;;;;;;0.00;0.00;;;;;;;18.90;51.34;101588.06;7366262;19;20015;-64
2022/07/04 10:14:11;;;;;;;0.00;0.00;;;;;;;18.97;51.34;101598.41;7367055;19;20026;-64
2022/07/04 10:16:38;;;;;;;0.10;0.10;;;;;;;19.02;50.98;101607.00;7360037;19;20010;-64
2022/07/04 10:19:05;;;;;;;0.10;0.10;;;;;;;19.04;50.50;101606.00;7365507;19;20007;-64
2022/07/04 10:21:32;;;;;;;0.10;0.10;;;;;;;19.06;50.32;101608.56;7363663;19;20035;-63
2022/07/04 10:23:58;;;;;;;0.10;0.10;;;;;;;19.05;50.39;101620.09;7364949;19;20022;-64
2022/07/04 10:26:23;;;;;;;0.00;0.00;;;;;;;19.03;50.38;101619.31;7364156;19;20006;-64
2022/07/04 10:28:51;;;;;;;0.10;0.10;;;;;;;19.05;50.79;101625.38;7367512;19;20030;-64
2022/07/04 10:31:18;;;;;;;0.00;0.00;;;;;;;19.08;50.27;101627.91;7364774;19;20010;-64
2022/07/04 10:33:44;;;;;;;0.03;0.03;;;;;;;19.09;50.18;101624.31;7364708;19;20579;-64
2022/07/04 10:36:20;;;;;;;0.10;0.10;;;;;;;19.16;51.22;101625.78;7363033;19;20069;-64
2022/07/04 10:38:54;;;;;;;0.10;0.10;;;;;;;19.18;51.07;101618.63;7364591;19;20010;-64
2022/07/04 10:41:23;;;;;;;0.10;0.10;;;;;;;19.22;50.10;101625.53;7364341;19;20090;-64
2022/07/04 10:43:48;;;;;;;0.08;0.08;;;;;;;19.25;49.88;101628.00;7365217;19;20038;-64
2022/07/04 10:46:14;;;;;;;0.03;0.03;;;;;;;19.31;49.19;101630.41;7364157;19;20015;-64
2022/07/04 10:48:58;;;;;;;0.05;0.05;;;;;;;19.41;50.71;101630.84;7365023;19;20010;-64
2022/07/04 10:51:46;;;;;;;0.10;0.10;;;;;;;19.44;50.14;101626.28;7363832;19;20010;-64
2022/07/04 10:54:18;;;;;;;0.00;0.00;;;;;;;19.42;49.62;101630.78;7363478;19;20014;-64
2022/07/04 10:57:13;;;;;;;0.10;0.10;;;;;;;19.49;50.48;101634.03;7363749;19;20014;-64
2022/07/04 10:59:42;;;;;;;0.00;0.00;;;;;;;19.44;49.21;101636.88;7260002;19;2004249;-64
2022/07/04 11:02:09;;;;;;;0.10;0.10;;;;;;;19.47;49.13;101635.03;7364738;19;20026;-64
2022/07/04 11:04:57;;;;;;;0.10;0.10;;;;;;;19.30;49.85;101601.34;7363840;19;20107;-64
2022/07/04 11:07:40;;;;;;;0.00;0.00;;;;;;;19.60;50.06;101646.81;7258993;19;2004510;-64
2022/07/04 11:10:21;;;;;;;0.10;0.10;;;;;;;19.64;49.98;101641.31;7364829;19;20006;-64
2022/07/04 11:12:53;;;;;;;0.08;0.08;;;;;;;19.73;49.35;101636.53;7363687;19;20014;-64
2022/07/04 11:15:40;;;;;;;0.10;0.10;;;;;;;19.87;50.20;101642.91;7362462;19;20015;-64
2022/07/04 11:18:13;;;;;;;0.10;0.10;;;;;;;19.91;49.27;101631.22;7364545;19;20010;-64
2022/07/04 11:20:44;;;;;;;0.10;0.10;;;;;;;20.06;49.61;101642.88;7362880;19;20703;-64
2022/07/04 11:23:16;;;;;;;0.00;0.00;;;;;;;20.19;48.06;101649.34;7364341;19;20556;-64
2022/07/04 11:25:43;;;;;;;0.00;0.00;;;;;;;20.30;48.36;101650.63;7363512;19;20478;-64
2022/07/04 11:28:41;;;;;;;0.10;0.10;;;;;;;20.46;49.74;101655.13;7362876;19;20010;-63
2022/07/04 11:31:06;;;;;;;0.00;0.00;;;;;;;20.47;47.79;101650.69;7260335;19;2004456;-64
2022/07/04 11:33:35;;;;;;;0.10;0.10;;;;;;;20.53;47.52;101654.81;7364864;19;20011;-63
2022/07/04 11:36:09;;;;;;;0.00;0.00;;;;;;;20.58;47.89;101647.50;7363182;19;20017;-64
2022/07/04 11:38:56;;;;;;;0.03;0.03;;;;;;;20.62;48.30;101655.22;7362112;19;20002;-63